Portada
METAR-TAF:

METAR-TAF

Aeroports :

Aghajari, Iran

latitud: 30-46N, longitud: 049-40E, altitud: 29 m

Observació

L'informe es va fer fa 5 hores i 48 minuts, a les 17:00 UTC
Vent 6 kt del Est/Sud-Est
Temperatura 18°C
Humitat 77%
Pressió 1018 hPa
Visibilitat: 6000 m
Núvols disperses a una alçada de 4000 ft

METAR: OIAG 061700Z 11006KT 6000 SCT040 18/14 Q1018

Hora: 02:18 (22:48 UTC)


TAF: manca

Observacions i pronòstics meteorològics de més de 4000 aeroports (METAR i TAF).

Les estacions disponibles són els punts grocs i vermells al mapa.

Posi el ratolí al punt desitjat per veure el nom de l'estació.

Feu clic per veure les observacions i els pronòstics meteorològics.

Per canviar el mapa: feu clic els botons verds amb una creu de color negre per apropar; al botó verd amb un guió per allunyar la imatge; o en les fletxes verdes per a mapes adjacents.


METAR-TAF: